sensor_id;sensor_type;location;lat;lon;timestamp;P1;durP1;ratioP1;P2;durP2;ratioP2
11996;SDS011;6058;48.704;9.474;2023-02-01T00:00:23;1.60;;;1.50;;
11996;SDS011;6058;48.704;9.474;2023-02-01T00:02:51;3.30;;;1.60;;
11996;SDS011;6058;48.704;9.474;2023-02-01T00:05:18;2.43;;;2.00;;
11996;SDS011;6058;48.704;9.474;2023-02-01T00:07:47;2.77;;;1.60;;
11996;SDS011;6058;48.704;9.474;2023-02-01T00:10:14;3.80;;;2.30;;
11996;SDS011;6058;48.704;9.474;2023-02-01T00:12:42;2.27;;;1.77;;
11996;SDS011;6058;48.704;9.474;2023-02-01T00:15:09;4.77;;;1.53;;
11996;SDS011;6058;48.704;9.474;2023-02-01T00:17:36;3.17;;;1.80;;
11996;SDS011;6058;48.704;9.474;2023-02-01T00:20:04;2.13;;;1.77;;
11996;SDS011;6058;48.704;9.474;2023-02-01T00:22:31;2.07;;;1.77;;
11996;SDS011;6058;48.704;9.474;2023-02-01T00:24:59;2.50;;;2.27;;
11996;SDS011;6058;48.704;9.474;2023-02-01T00:27:26;2.80;;;1.93;;
11996;SDS011;6058;48.704;9.474;2023-02-01T00:29:54;4.30;;;1.97;;
11996;SDS011;6058;48.704;9.474;2023-02-01T00:32:21;3.20;;;1.80;;
11996;SDS011;6058;48.704;9.474;2023-02-01T00:34:48;2.03;;;0.83;;
11996;SDS011;6058;48.704;9.474;2023-02-01T00:37:15;2.93;;;1.73;;
11996;SDS011;6058;48.704;9.474;2023-02-01T00:39:42;2.57;;;1.77;;
11996;SDS011;6058;48.704;9.474;2023-02-01T00:42:10;2.27;;;1.60;;
11996;SDS011;6058;48.704;9.474;2023-02-01T00:44:38;2.60;;;2.00;;
11996;SDS011;6058;48.704;9.474;2023-02-01T00:47:05;3.10;;;1.30;;
11996;SDS011;6058;48.704;9.474;2023-02-01T00:49:32;2.87;;;2.23;;
11996;SDS011;6058;48.704;9.474;2023-02-01T00:51:59;2.60;;;2.00;;
11996;SDS011;6058;48.704;9.474;2023-02-01T00:54:26;2.17;;;1.80;;
11996;SDS011;6058;48.704;9.474;2023-02-01T00:56:53;2.60;;;1.90;;
11996;SDS011;6058;48.704;9.474;2023-02-01T00:59:22;1.93;;;1.60;;
11996;SDS011;6058;48.704;9.474;2023-02-01T01:01:49;2.17;;;1.43;;
11996;SDS011;6058;48.704;9.474;2023-02-01T01:04:16;1.77;;;1.57;;
11996;SDS011;6058;48.704;9.474;2023-02-01T01:06:43;3.23;;;2.13;;
11996;SDS011;6058;48.704;9.474;2023-02-01T01:09:10;2.47;;;1.77;;
11996;SDS011;6058;48.704;9.474;2023-02-01T01:11:37;2.23;;;1.90;;
11996;SDS011;6058;48.704;9.474;2023-02-01T01:14:05;1.90;;;1.73;;
11996;SDS011;6058;48.704;9.474;2023-02-01T01:16:34;2.37;;;1.70;;
11996;SDS011;6058;48.704;9.474;2023-02-01T01:19:01;2.23;;;1.97;;
11996;SDS011;6058;48.704;9.474;2023-02-01T01:21:28;1.83;;;1.63;;
11996;SDS011;6058;48.704;9.474;2023-02-01T01:23:55;1.67;;;1.37;;
11996;SDS011;6058;48.704;9.474;2023-02-01T01:26:23;2.17;;;1.63;;
11996;SDS011;6058;48.704;9.474;2023-02-01T01:28:50;2.77;;;1.47;;
11996;SDS011;6058;48.704;9.474;2023-02-01T01:31:18;1.83;;;1.60;;
11996;SDS011;6058;48.704;9.474;2023-02-01T01:33:48;1.47;;;1.37;;
11996;SDS011;6058;48.704;9.474;2023-02-01T01:36:15;1.73;;;1.43;;
11996;SDS011;6058;48.704;9.474;2023-02-01T01:38:43;1.67;;;1.57;;
11996;SDS011;6058;48.704;9.474;2023-02-01T01:41:12;2.40;;;1.47;;
11996;SDS011;6058;48.704;9.474;2023-02-01T01:43:47;4.47;;;1.60;;
11996;SDS011;6058;48.704;9.474;2023-02-01T01:46:15;3.07;;;1.60;;
11996;SDS011;6058;48.704;9.474;2023-02-01T01:48:42;1.40;;;1.30;;
11996;SDS011;6058;48.704;9.474;2023-02-01T01:51:11;5.80;;;1.90;;
11996;SDS011;6058;48.704;9.474;2023-02-01T01:53:42;2.07;;;1.53;;
11996;SDS011;6058;48.704;9.474;2023-02-01T01:56:10;1.77;;;1.67;;
11996;SDS011;6058;48.704;9.474;2023-02-01T01:58:38;3.70;;;1.37;;
11996;SDS011;6058;48.704;9.474;2023-02-01T02:01:05;1.83;;;1.50;;
11996;SDS011;6058;48.704;9.474;2023-02-01T02:03:32;1.40;;;1.30;;
11996;SDS011;6058;48.704;9.474;2023-02-01T02:06:01;1.60;;;1.50;;
11996;SDS011;6058;48.704;9.474;2023-02-01T02:08:31;3.07;;;1.90;;
11996;SDS011;6058;48.704;9.474;2023-02-01T02:10:58;1.73;;;1.63;;
11996;SDS011;6058;48.704;9.474;2023-02-01T02:13:25;1.67;;;1.33;;
11996;SDS011;6058;48.704;9.474;2023-02-01T02:15:56;1.33;;;1.07;;
11996;SDS011;6058;48.704;9.474;2023-02-01T02:18:27;0.97;;;0.87;;
11996;SDS011;6058;48.704;9.474;2023-02-01T02:21:16;1.20;;;1.20;;
11996;SDS011;6058;48.704;9.474;2023-02-01T02:23:52;2.77;;;1.53;;
11996;SDS011;6058;48.704;9.474;2023-02-01T02:26:32;1.93;;;1.30;;
11996;SDS011;6058;48.704;9.474;2023-02-01T02:29:25;1.50;;;1.40;;
11996;SDS011;6058;48.704;9.474;2023-02-01T02:32:04;1.67;;;1.30;;
11996;SDS011;6058;48.704;9.474;2023-02-01T02:34:36;1.43;;;1.33;;
11996;SDS011;6058;48.704;9.474;2023-02-01T02:37:08;1.60;;;1.40;;
11996;SDS011;6058;48.704;9.474;2023-02-01T02:39:41;1.20;;;1.10;;
11996;SDS011;6058;48.704;9.474;2023-02-01T02:42:12;1.63;;;1.53;;
11996;SDS011;6058;48.704;9.474;2023-02-01T02:44:59;2.50;;;1.23;;
11996;SDS011;6058;48.704;9.474;2023-02-01T02:47:49;1.40;;;1.00;;
11996;SDS011;6058;48.704;9.474;2023-02-01T02:50:22;1.33;;;1.20;;
11996;SDS011;6058;48.704;9.474;2023-02-01T02:53:09;1.40;;;1.30;;
11996;SDS011;6058;48.704;9.474;2023-02-01T02:55:58;0.90;;;0.90;;
11996;SDS011;6058;48.704;9.474;2023-02-01T02:58:43;1.23;;;1.13;;
11996;SDS011;6058;48.704;9.474;2023-02-01T03:01:29;1.13;;;1.03;;
11996;SDS011;6058;48.704;9.474;2023-02-01T03:04:14;1.37;;;1.27;;
11996;SDS011;6058;48.704;9.474;2023-02-01T03:06:44;0.97;;;0.97;;
11996;SDS011;6058;48.704;9.474;2023-02-01T03:09:13;0.93;;;0.83;;
11996;SDS011;6058;48.704;9.474;2023-02-01T03:11:41;1.67;;;1.50;;
11996;SDS011;6058;48.704;9.474;2023-02-01T03:14:28;1.10;;;1.00;;
11996;SDS011;6058;48.704;9.474;2023-02-01T03:16:57;1.20;;;1.10;;
11996;SDS011;6058;48.704;9.474;2023-02-01T03:19:25;2.20;;;1.40;;
11996;SDS011;6058;48.704;9.474;2023-02-01T03:21:55;1.27;;;1.17;;
11996;SDS011;6058;48.704;9.474;2023-02-01T03:24:24;2.53;;;1.27;;
11996;SDS011;6058;48.704;9.474;2023-02-01T03:27:00;1.40;;;1.30;;
11996;SDS011;6058;48.704;9.474;2023-02-01T03:29:29;1.53;;;1.40;;
11996;SDS011;6058;48.704;9.474;2023-02-01T03:31:57;2.27;;;1.30;;
11996;SDS011;6058;48.704;9.474;2023-02-01T03:34:24;2.07;;;1.43;;
11996;SDS011;6058;48.704;9.474;2023-02-01T03:36:53;2.50;;;1.40;;
11996;SDS011;6058;48.704;9.474;2023-02-01T03:39:27;1.40;;;1.30;;
11996;SDS011;6058;48.704;9.474;2023-02-01T03:41:57;1.67;;;1.47;;
11996;SDS011;6058;48.704;9.474;2023-02-01T03:44:26;1.87;;;1.40;;
11996;SDS011;6058;48.704;9.474;2023-02-01T03:46:55;1.37;;;1.27;;
11996;SDS011;6058;48.704;9.474;2023-02-01T03:49:26;2.47;;;1.73;;
11996;SDS011;6058;48.704;9.474;2023-02-01T03:51:54;1.37;;;1.33;;
11996;SDS011;6058;48.704;9.474;2023-02-01T03:54:21;1.50;;;1.30;;
11996;SDS011;6058;48.704;9.474;2023-02-01T03:56:50;1.40;;;1.30;;
11996;SDS011;6058;48.704;9.474;2023-02-01T03:59:19;0.90;;;0.90;;
11996;SDS011;6058;48.704;9.474;2023-02-01T04:01:46;2.10;;;1.40;;
11996;SDS011;6058;48.704;9.474;2023-02-01T04:04:13;2.70;;;1.60;;
11996;SDS011;6058;48.704;9.474;2023-02-01T04:06:44;0.87;;;0.83;;
11996;SDS011;6058;48.704;9.474;2023-02-01T04:09:12;1.93;;;1.50;;
11996;SDS011;6058;48.704;9.474;2023-02-01T04:11:39;2.17;;;1.17;;
11996;SDS011;6058;48.704;9.474;2023-02-01T04:14:07;0.83;;;0.83;;
11996;SDS011;6058;48.704;9.474;2023-02-01T04:16:35;0.60;;;0.60;;
11996;SDS011;6058;48.704;9.474;2023-02-01T04:19:02;1.50;;;1.40;;
11996;SDS011;6058;48.704;9.474;2023-02-01T04:21:29;1.40;;;1.30;;
11996;SDS011;6058;48.704;9.474;2023-02-01T04:23:56;0.60;;;0.60;;
11996;SDS011;6058;48.704;9.474;2023-02-01T04:26:23;1.43;;;1.33;;
11996;SDS011;6058;48.704;9.474;2023-02-01T04:28:51;1.50;;;1.27;;
11996;SDS011;6058;48.704;9.474;2023-02-01T04:31:20;1.90;;;1.67;;
11996;SDS011;6058;48.704;9.474;2023-02-01T04:33:50;1.60;;;1.50;;
11996;SDS011;6058;48.704;9.474;2023-02-01T04:36:18;0.80;;;0.80;;
11996;SDS011;6058;48.704;9.474;2023-02-01T04:38:46;1.50;;;1.40;;
11996;SDS011;6058;48.704;9.474;2023-02-01T04:41:13;2.07;;;1.30;;
11996;SDS011;6058;48.704;9.474;2023-02-01T04:43:43;1.53;;;1.43;;
11996;SDS011;6058;48.704;9.474;2023-02-01T04:46:10;1.57;;;1.47;;
11996;SDS011;6058;48.704;9.474;2023-02-01T04:48:39;1.50;;;1.40;;
11996;SDS011;6058;48.704;9.474;2023-02-01T04:51:06;1.20;;;1.13;;
11996;SDS011;6058;48.704;9.474;2023-02-01T04:53:33;2.10;;;1.10;;
11996;SDS011;6058;48.704;9.474;2023-02-01T04:56:00;1.47;;;1.37;;
11996;SDS011;6058;48.704;9.474;2023-02-01T04:58:27;1.53;;;1.43;;
11996;SDS011;6058;48.704;9.474;2023-02-01T05:00:54;1.33;;;1.23;;
11996;SDS011;6058;48.704;9.474;2023-02-01T05:03:22;1.43;;;1.33;;
11996;SDS011;6058;48.704;9.474;2023-02-01T05:05:50;1.13;;;0.80;;
11996;SDS011;6058;48.704;9.474;2023-02-01T05:08:18;1.67;;;1.10;;
11996;SDS011;6058;48.704;9.474;2023-02-01T05:10:47;1.37;;;1.17;;
11996;SDS011;6058;48.704;9.474;2023-02-01T05:13:14;1.30;;;1.20;;
11996;SDS011;6058;48.704;9.474;2023-02-01T05:15:59;2.30;;;1.27;;
11996;SDS011;6058;48.704;9.474;2023-02-01T05:18:26;1.40;;;1.30;;
11996;SDS011;6058;48.704;9.474;2023-02-01T05:20:55;1.40;;;1.20;;
11996;SDS011;6058;48.704;9.474;2023-02-01T05:23:22;1.13;;;1.10;;
11996;SDS011;6058;48.704;9.474;2023-02-01T05:25:49;1.50;;;1.40;;
11996;SDS011;6058;48.704;9.474;2023-02-01T05:28:16;1.70;;;1.60;;
11996;SDS011;6058;48.704;9.474;2023-02-01T05:30:43;1.10;;;1.10;;
11996;SDS011;6058;48.704;9.474;2023-02-01T05:33:10;1.10;;;1.00;;
11996;SDS011;6058;48.704;9.474;2023-02-01T05:35:37;1.17;;;1.10;;
11996;SDS011;6058;48.704;9.474;2023-02-01T05:38:06;1.80;;;1.50;;
11996;SDS011;6058;48.704;9.474;2023-02-01T05:40:33;2.10;;;1.40;;
11996;SDS011;6058;48.704;9.474;2023-02-01T05:43:00;1.40;;;1.30;;
11996;SDS011;6058;48.704;9.474;2023-02-01T05:45:27;2.00;;;1.20;;
11996;SDS011;6058;48.704;9.474;2023-02-01T05:47:54;1.83;;;1.43;;
11996;SDS011;6058;48.704;9.474;2023-02-01T05:50:21;2.20;;;1.20;;
11996;SDS011;6058;48.704;9.474;2023-02-01T05:52:49;1.50;;;1.17;;
11996;SDS011;6058;48.704;9.474;2023-02-01T05:55:17;1.33;;;1.23;;
11996;SDS011;6058;48.704;9.474;2023-02-01T05:57:44;1.40;;;1.30;;
11996;SDS011;6058;48.704;9.474;2023-02-01T06:00:12;1.30;;;1.20;;
11996;SDS011;6058;48.704;9.474;2023-02-01T06:02:39;2.07;;;1.50;;
11996;SDS011;6058;48.704;9.474;2023-02-01T06:05:07;1.37;;;1.27;;
11996;SDS011;6058;48.704;9.474;2023-02-01T06:07:35;1.00;;;1.00;;
11996;SDS011;6058;48.704;9.474;2023-02-01T06:10:02;1.30;;;1.23;;
11996;SDS011;6058;48.704;9.474;2023-02-01T06:12:31;1.97;;;1.50;;
11996;SDS011;6058;48.704;9.474;2023-02-01T06:14:58;2.20;;;0.93;;
11996;SDS011;6058;48.704;9.474;2023-02-01T06:17:25;1.30;;;1.20;;
11996;SDS011;6058;48.704;9.474;2023-02-01T06:19:52;1.47;;;0.93;;
11996;SDS011;6058;48.704;9.474;2023-02-01T06:22:19;2.17;;;1.00;;
11996;SDS011;6058;48.704;9.474;2023-02-01T06:24:47;2.27;;;1.40;;
11996;SDS011;6058;48.704;9.474;2023-02-01T06:27:14;1.30;;;1.20;;
11996;SDS011;6058;48.704;9.474;2023-02-01T06:29:43;1.30;;;1.20;;
11996;SDS011;6058;48.704;9.474;2023-02-01T06:32:10;2.63;;;1.47;;
11996;SDS011;6058;48.704;9.474;2023-02-01T06:34:37;3.33;;;1.57;;
11996;SDS011;6058;48.704;9.474;2023-02-01T06:37:07;1.00;;;1.00;;
11996;SDS011;6058;48.704;9.474;2023-02-01T06:39:36;1.63;;;1.30;;
11996;SDS011;6058;48.704;9.474;2023-02-01T06:42:03;3.27;;;1.40;;
11996;SDS011;6058;48.704;9.474;2023-02-01T06:44:30;1.67;;;1.57;;
11996;SDS011;6058;48.704;9.474;2023-02-01T06:46:58;1.67;;;1.27;;
11996;SDS011;6058;48.704;9.474;2023-02-01T06:49:25;1.27;;;1.17;;
11996;SDS011;6058;48.704;9.474;2023-02-01T06:51:52;3.13;;;1.53;;
11996;SDS011;6058;48.704;9.474;2023-02-01T06:54:20;2.33;;;1.30;;
11996;SDS011;6058;48.704;9.474;2023-02-01T06:56:47;1.77;;;1.53;;
11996;SDS011;6058;48.704;9.474;2023-02-01T06:59:14;1.33;;;1.10;;
11996;SDS011;6058;48.704;9.474;2023-02-01T07:01:41;1.27;;;1.10;;
11996;SDS011;6058;48.704;9.474;2023-02-01T07:04:10;0.77;;;0.77;;
11996;SDS011;6058;48.704;9.474;2023-02-01T07:06:37;3.63;;;1.30;;
11996;SDS011;6058;48.704;9.474;2023-02-01T07:09:07;1.03;;;0.97;;
11996;SDS011;6058;48.704;9.474;2023-02-01T07:11:34;2.13;;;1.30;;
11996;SDS011;6058;48.704;9.474;2023-02-01T07:14:04;3.47;;;1.10;;
11996;SDS011;6058;48.704;9.474;2023-02-01T07:16:31;1.20;;;1.10;;
11996;SDS011;6058;48.704;9.474;2023-02-01T07:18:58;0.60;;;0.57;;
11996;SDS011;6058;48.704;9.474;2023-02-01T07:21:28;1.10;;;1.00;;
11996;SDS011;6058;48.704;9.474;2023-02-01T07:23:55;1.07;;;0.90;;
11996;SDS011;6058;48.704;9.474;2023-02-01T07:26:24;0.83;;;0.83;;
11996;SDS011;6058;48.704;9.474;2023-02-01T07:28:51;1.23;;;0.80;;
11996;SDS011;6058;48.704;9.474;2023-02-01T07:31:19;1.70;;;1.10;;
11996;SDS011;6058;48.704;9.474;2023-02-01T07:33:47;1.60;;;1.50;;
11996;SDS011;6058;48.704;9.474;2023-02-01T07:36:16;3.20;;;1.10;;
11996;SDS011;6058;48.704;9.474;2023-02-01T07:38:45;1.47;;;1.30;;
11996;SDS011;6058;48.704;9.474;2023-02-01T07:41:13;0.90;;;0.90;;
11996;SDS011;6058;48.704;9.474;2023-02-01T07:43:40;0.70;;;0.70;;
11996;SDS011;6058;48.704;9.474;2023-02-01T07:46:07;1.23;;;1.10;;
11996;SDS011;6058;48.704;9.474;2023-02-01T07:48:34;2.70;;;1.20;;
11996;SDS011;6058;48.704;9.474;2023-02-01T07:51:02;2.03;;;1.20;;
11996;SDS011;6058;48.704;9.474;2023-02-01T07:53:30;1.63;;;1.13;;
11996;SDS011;6058;48.704;9.474;2023-02-01T07:55:58;1.80;;;1.40;;
11996;SDS011;6058;48.704;9.474;2023-02-01T07:58:26;3.13;;;1.00;;
11996;SDS011;6058;48.704;9.474;2023-02-01T08:00:53;1.90;;;1.43;;
11996;SDS011;6058;48.704;9.474;2023-02-01T08:03:50;1.40;;;1.20;;
11996;SDS011;6058;48.704;9.474;2023-02-01T08:06:18;1.97;;;1.20;;
11996;SDS011;6058;48.704;9.474;2023-02-01T08:08:45;1.47;;;1.30;;
11996;SDS011;6058;48.704;9.474;2023-02-01T08:11:14;1.33;;;1.20;;
11996;SDS011;6058;48.704;9.474;2023-02-01T08:13:41;1.40;;;1.30;;
11996;SDS011;6058;48.704;9.474;2023-02-01T08:16:09;0.60;;;0.53;;
11996;SDS011;6058;48.704;9.474;2023-02-01T08:18:37;0.90;;;0.90;;
11996;SDS011;6058;48.704;9.474;2023-02-01T08:21:04;2.53;;;1.40;;
11996;SDS011;6058;48.704;9.474;2023-02-01T08:23:32;3.23;;;1.50;;
11996;SDS011;6058;48.704;9.474;2023-02-01T08:26:06;1.87;;;1.07;;
11996;SDS011;6058;48.704;9.474;2023-02-01T08:28:35;1.13;;;1.03;;
11996;SDS011;6058;48.704;9.474;2023-02-01T08:31:06;1.70;;;1.40;;
11996;SDS011;6058;48.704;9.474;2023-02-01T08:33:33;5.23;;;1.30;;
11996;SDS011;6058;48.704;9.474;2023-02-01T08:36:02;1.40;;;1.07;;
11996;SDS011;6058;48.704;9.474;2023-02-01T08:38:29;1.60;;;1.20;;
11996;SDS011;6058;48.704;9.474;2023-02-01T08:40:57;1.57;;;1.10;;
11996;SDS011;6058;48.704;9.474;2023-02-01T08:43:24;1.40;;;1.30;;
11996;SDS011;6058;48.704;9.474;2023-02-01T08:45:55;1.27;;;0.80;;
11996;SDS011;6058;48.704;9.474;2023-02-01T08:48:22;0.97;;;0.97;;
11996;SDS011;6058;48.704;9.474;2023-02-01T08:50:49;5.17;;;1.27;;
11996;SDS011;6058;48.704;9.474;2023-02-01T08:53:16;1.10;;;1.00;;
11996;SDS011;6058;48.704;9.474;2023-02-01T08:55:44;4.93;;;1.27;;
11996;SDS011;6058;48.704;9.474;2023-02-01T08:58:12;1.20;;;1.10;;
11996;SDS011;6058;48.704;9.474;2023-02-01T09:00:39;1.90;;;1.10;;
11996;SDS011;6058;48.704;9.474;2023-02-01T09:03:09;1.50;;;1.37;;
11996;SDS011;6058;48.704;9.474;2023-02-01T09:05:36;2.70;;;1.50;;
11996;SDS011;6058;48.704;9.474;2023-02-01T09:08:04;2.23;;;1.03;;
11996;SDS011;6058;48.704;9.474;2023-02-01T09:10:31;1.30;;;1.07;;
11996;SDS011;6058;48.704;9.474;2023-02-01T09:12:58;0.87;;;0.70;;
11996;SDS011;6058;48.704;9.474;2023-02-01T09:15:25;1.37;;;1.27;;
11996;SDS011;6058;48.704;9.474;2023-02-01T09:17:52;1.83;;;1.53;;
11996;SDS011;6058;48.704;9.474;2023-02-01T09:20:21;2.30;;;1.30;;
11996;SDS011;6058;48.704;9.474;2023-02-01T09:22:49;2.23;;;1.30;;
11996;SDS011;6058;48.704;9.474;2023-02-01T09:25:16;1.47;;;1.37;;
11996;SDS011;6058;48.704;9.474;2023-02-01T09:27:43;1.50;;;1.10;;
11996;SDS011;6058;48.704;9.474;2023-02-01T09:30:11;1.43;;;1.30;;
11996;SDS011;6058;48.704;9.474;2023-02-01T09:32:38;3.27;;;1.63;;
11996;SDS011;6058;48.704;9.474;2023-02-01T09:35:05;2.90;;;1.63;;
11996;SDS011;6058;48.704;9.474;2023-02-01T09:37:34;1.70;;;1.30;;
11996;SDS011;6058;48.704;9.474;2023-02-01T09:40:02;5.70;;;1.57;;
11996;SDS011;6058;48.704;9.474;2023-02-01T09:42:35;1.67;;;1.37;;
11996;SDS011;6058;48.704;9.474;2023-02-01T09:45:10;7.00;;;1.33;;
11996;SDS011;6058;48.704;9.474;2023-02-01T09:47:45;1.47;;;1.10;;
11996;SDS011;6058;48.704;9.474;2023-02-01T09:50:15;1.77;;;1.10;;
11996;SDS011;6058;48.704;9.474;2023-02-01T09:52:48;2.67;;;1.37;;
11996;SDS011;6058;48.704;9.474;2023-02-01T09:55:18;1.27;;;1.17;;
11996;SDS011;6058;48.704;9.474;2023-02-01T09:57:49;1.33;;;1.23;;
11996;SDS011;6058;48.704;9.474;2023-02-01T10:00:19;3.20;;;0.97;;
11996;SDS011;6058;48.704;9.474;2023-02-01T10:02:47;1.30;;;1.20;;
11996;SDS011;6058;48.704;9.474;2023-02-01T10:05:15;1.33;;;1.23;;
11996;SDS011;6058;48.704;9.474;2023-02-01T10:07:44;1.97;;;1.10;;
11996;SDS011;6058;48.704;9.474;2023-02-01T10:10:18;3.23;;;1.30;;
11996;SDS011;6058;48.704;9.474;2023-02-01T10:15:50;3.73;;;1.53;;
11996;SDS011;6058;48.704;9.474;2023-02-01T10:18:33;2.00;;;1.80;;
11996;SDS011;6058;48.704;9.474;2023-02-01T10:21:04;3.10;;;1.33;;
11996;SDS011;6058;48.704;9.474;2023-02-01T10:23:36;2.33;;;1.43;;
11996;SDS011;6058;48.704;9.474;2023-02-01T10:26:09;4.00;;;1.70;;
11996;SDS011;6058;48.704;9.474;2023-02-01T10:28:38;5.17;;;1.87;;
11996;SDS011;6058;48.704;9.474;2023-02-01T10:31:06;3.07;;;1.33;;
11996;SDS011;6058;48.704;9.474;2023-02-01T10:33:36;1.87;;;0.83;;
11996;SDS011;6058;48.704;9.474;2023-02-01T10:36:10;6.23;;;1.77;;
11996;SDS011;6058;48.704;9.474;2023-02-01T10:38:42;2.70;;;1.27;;
11996;SDS011;6058;48.704;9.474;2023-02-01T10:41:11;3.77;;;1.70;;
11996;SDS011;6058;48.704;9.474;2023-02-01T10:43:39;4.27;;;1.70;;
11996;SDS011;6058;48.704;9.474;2023-02-01T10:46:07;2.17;;;1.50;;
11996;SDS011;6058;48.704;9.474;2023-02-01T10:48:34;5.57;;;1.77;;
11996;SDS011;6058;48.704;9.474;2023-02-01T10:51:02;1.63;;;1.13;;
11996;SDS011;6058;48.704;9.474;2023-02-01T10:53:34;4.37;;;1.60;;
11996;SDS011;6058;48.704;9.474;2023-02-01T10:56:05;3.13;;;1.43;;
11996;SDS011;6058;48.704;9.474;2023-02-01T10:58:34;3.67;;;1.60;;
11996;SDS011;6058;48.704;9.474;2023-02-01T11:01:05;4.30;;;1.90;;
11996;SDS011;6058;48.704;9.474;2023-02-01T11:03:34;4.07;;;1.77;;
11996;SDS011;6058;48.704;9.474;2023-02-01T11:06:10;2.73;;;1.30;;
11996;SDS011;6058;48.704;9.474;2023-02-01T11:08:48;4.77;;;1.70;;
11996;SDS011;6058;48.704;9.474;2023-02-01T11:11:16;4.40;;;1.80;;
11996;SDS011;6058;48.704;9.474;2023-02-01T11:13:45;3.37;;;1.57;;
11996;SDS011;6058;48.704;9.474;2023-02-01T11:16:18;5.20;;;1.80;;
11996;SDS011;6058;48.704;9.474;2023-02-01T11:18:45;3.77;;;2.00;;
11996;SDS011;6058;48.704;9.474;2023-02-01T11:21:19;4.13;;;1.43;;
11996;SDS011;6058;48.704;9.474;2023-02-01T11:23:47;2.80;;;1.53;;
11996;SDS011;6058;48.704;9.474;2023-02-01T11:26:19;6.07;;;1.77;;
11996;SDS011;6058;48.704;9.474;2023-02-01T11:28:52;4.13;;;1.90;;
11996;SDS011;6058;48.704;9.474;2023-02-01T11:31:20;4.33;;;1.70;;
11996;SDS011;6058;48.704;9.474;2023-02-01T11:33:48;6.53;;;2.27;;
11996;SDS011;6058;48.704;9.474;2023-02-01T11:36:17;6.03;;;1.97;;
11996;SDS011;6058;48.704;9.474;2023-02-01T11:38:46;4.60;;;1.83;;
11996;SDS011;6058;48.704;9.474;2023-02-01T11:41:14;2.77;;;1.40;;
11996;SDS011;6058;48.704;9.474;2023-02-01T11:43:52;4.33;;;1.53;;
11996;SDS011;6058;48.704;9.474;2023-02-01T11:46:21;5.67;;;2.17;;
11996;SDS011;6058;48.704;9.474;2023-02-01T11:48:51;6.23;;;1.77;;
11996;SDS011;6058;48.704;9.474;2023-02-01T11:51:23;5.23;;;2.30;;
11996;SDS011;6058;48.704;9.474;2023-02-01T11:54:02;8.23;;;1.80;;
11996;SDS011;6058;48.704;9.474;2023-02-01T11:56:34;6.07;;;2.43;;
11996;SDS011;6058;48.704;9.474;2023-02-01T11:59:11;5.60;;;2.03;;
11996;SDS011;6058;48.704;9.474;2023-02-01T12:01:50;3.20;;;1.77;;
11996;SDS011;6058;48.704;9.474;2023-02-01T12:07:14;4.70;;;1.57;;
11996;SDS011;6058;48.704;9.474;2023-02-01T12:10:01;8.77;;;2.00;;
11996;SDS011;6058;48.704;9.474;2023-02-01T12:12:34;4.13;;;1.63;;
11996;SDS011;6058;48.704;9.474;2023-02-01T12:17:54;8.70;;;2.00;;
11996;SDS011;6058;48.704;9.474;2023-02-01T12:20:28;8.30;;;2.13;;
11996;SDS011;6058;48.704;9.474;2023-02-01T12:23:02;8.60;;;1.53;;
11996;SDS011;6058;48.704;9.474;2023-02-01T12:25:34;6.37;;;1.60;;
11996;SDS011;6058;48.704;9.474;2023-02-01T12:28:16;4.47;;;1.90;;
11996;SDS011;6058;48.704;9.474;2023-02-01T12:30:56;4.93;;;1.73;;
11996;SDS011;6058;48.704;9.474;2023-02-01T12:33:30;6.33;;;1.47;;
11996;SDS011;6058;48.704;9.474;2023-02-01T12:38:52;5.93;;;1.43;;
11996;SDS011;6058;48.704;9.474;2023-02-01T12:41:34;5.00;;;1.73;;
11996;SDS011;6058;48.704;9.474;2023-02-01T12:44:03;4.63;;;1.57;;
11996;SDS011;6058;48.704;9.474;2023-02-01T12:46:33;5.20;;;1.60;;
11996;SDS011;6058;48.704;9.474;2023-02-01T12:49:04;5.63;;;1.83;;
11996;SDS011;6058;48.704;9.474;2023-02-01T12:51:33;6.07;;;2.50;;
11996;SDS011;6058;48.704;9.474;2023-02-01T12:54:02;14.17;;;8.80;;
11996;SDS011;6058;48.704;9.474;2023-02-01T12:56:32;4.50;;;1.33;;
11996;SDS011;6058;48.704;9.474;2023-02-01T12:59:01;6.80;;;2.10;;
11996;SDS011;6058;48.704;9.474;2023-02-01T13:01:30;4.93;;;1.50;;
11996;SDS011;6058;48.704;9.474;2023-02-01T13:04:02;7.20;;;1.77;;
11996;SDS011;6058;48.704;9.474;2023-02-01T13:06:32;4.57;;;1.40;;
11996;SDS011;6058;48.704;9.474;2023-02-01T13:09:03;7.40;;;1.67;;
11996;SDS011;6058;48.704;9.474;2023-02-01T13:11:33;3.83;;;1.80;;
11996;SDS011;6058;48.704;9.474;2023-02-01T13:14:02;1.03;;;1.00;;
11996;SDS011;6058;48.704;9.474;2023-02-01T13:16:32;6.87;;;2.10;;
11996;SDS011;6058;48.704;9.474;2023-02-01T13:19:03;5.87;;;2.03;;
11996;SDS011;6058;48.704;9.474;2023-02-01T13:21:34;7.30;;;1.80;;
11996;SDS011;6058;48.704;9.474;2023-02-01T13:24:02;5.20;;;1.77;;
11996;SDS011;6058;48.704;9.474;2023-02-01T13:26:30;8.23;;;1.50;;
11996;SDS011;6058;48.704;9.474;2023-02-01T13:28:58;6.80;;;1.87;;
11996;SDS011;6058;48.704;9.474;2023-02-01T13:34:40;6.10;;;1.87;;
11996;SDS011;6058;48.704;9.474;2023-02-01T13:37:15;7.70;;;1.63;;
11996;SDS011;6058;48.704;9.474;2023-02-01T13:42:41;6.30;;;2.33;;
11996;SDS011;6058;48.704;9.474;2023-02-01T13:45:13;4.47;;;1.80;;
11996;SDS011;6058;48.704;9.474;2023-02-01T13:47:41;8.37;;;2.10;;
11996;SDS011;6058;48.704;9.474;2023-02-01T13:50:12;8.07;;;2.03;;
11996;SDS011;6058;48.704;9.474;2023-02-01T13:52:42;11.50;;;1.83;;
11996;SDS011;6058;48.704;9.474;2023-02-01T13:55:14;8.50;;;2.20;;
11996;SDS011;6058;48.704;9.474;2023-02-01T13:57:42;6.37;;;1.90;;
11996;SDS011;6058;48.704;9.474;2023-02-01T14:00:23;11.13;;;2.20;;
11996;SDS011;6058;48.704;9.474;2023-02-01T14:09:05;5.57;;;1.63;;
11996;SDS011;6058;48.704;9.474;2023-02-01T14:11:38;4.93;;;1.87;;
11996;SDS011;6058;48.704;9.474;2023-02-01T14:19:52;9.83;;;2.00;;
11996;SDS011;6058;48.704;9.474;2023-02-01T14:22:42;3.17;;;1.60;;
11996;SDS011;6058;48.704;9.474;2023-02-01T14:25:16;3.33;;;1.80;;
11996;SDS011;6058;48.704;9.474;2023-02-01T14:27:43;7.47;;;2.00;;
11996;SDS011;6058;48.704;9.474;2023-02-01T14:30:14;3.57;;;1.60;;
11996;SDS011;6058;48.704;9.474;2023-02-01T14:32:41;7.77;;;1.77;;
11996;SDS011;6058;48.704;9.474;2023-02-01T14:35:16;4.03;;;1.47;;
11996;SDS011;6058;48.704;9.474;2023-02-01T14:37:45;2.53;;;1.07;;
11996;SDS011;6058;48.704;9.474;2023-02-01T14:40:18;7.07;;;1.77;;
11996;SDS011;6058;48.704;9.474;2023-02-01T14:42:47;3.17;;;1.50;;
11996;SDS011;6058;48.704;9.474;2023-02-01T14:50:46;7.03;;;2.67;;
11996;SDS011;6058;48.704;9.474;2023-02-01T14:53:16;7.53;;;1.70;;
11996;SDS011;6058;48.704;9.474;2023-02-01T14:55:47;6.47;;;1.90;;
11996;SDS011;6058;48.704;9.474;2023-02-01T14:58:18;7.57;;;2.00;;
11996;SDS011;6058;48.704;9.474;2023-02-01T15:00:50;5.73;;;2.30;;
11996;SDS011;6058;48.704;9.474;2023-02-01T15:03:35;5.10;;;1.57;;
11996;SDS011;6058;48.704;9.474;2023-02-01T15:06:13;9.03;;;1.87;;
11996;SDS011;6058;48.704;9.474;2023-02-01T15:08:44;3.93;;;1.50;;
11996;SDS011;6058;48.704;9.474;2023-02-01T15:11:13;7.70;;;2.07;;
11996;SDS011;6058;48.704;9.474;2023-02-01T15:13:47;8.07;;;1.77;;
11996;SDS011;6058;48.704;9.474;2023-02-01T15:16:15;11.20;;;2.07;;
11996;SDS011;6058;48.704;9.474;2023-02-01T15:18:42;3.63;;;1.27;;
11996;SDS011;6058;48.704;9.474;2023-02-01T15:21:15;6.50;;;1.67;;
11996;SDS011;6058;48.704;9.474;2023-02-01T15:23:43;4.13;;;2.13;;
11996;SDS011;6058;48.704;9.474;2023-02-01T15:26:25;4.77;;;1.50;;
11996;SDS011;6058;48.704;9.474;2023-02-01T15:28:52;3.77;;;1.30;;
11996;SDS011;6058;48.704;9.474;2023-02-01T15:31:30;3.03;;;1.17;;
11996;SDS011;6058;48.704;9.474;2023-02-01T15:33:58;5.63;;;1.60;;
11996;SDS011;6058;48.704;9.474;2023-02-01T15:36:25;3.97;;;1.90;;
11996;SDS011;6058;48.704;9.474;2023-02-01T15:41:37;7.70;;;1.90;;
11996;SDS011;6058;48.704;9.474;2023-02-01T15:44:05;4.80;;;1.93;;
11996;SDS011;6058;48.704;9.474;2023-02-01T15:46:38;7.10;;;1.27;;
11996;SDS011;6058;48.704;9.474;2023-02-01T15:49:14;4.50;;;2.07;;
11996;SDS011;6058;48.704;9.474;2023-02-01T15:51:43;10.43;;;2.03;;
11996;SDS011;6058;48.704;9.474;2023-02-01T15:54:13;4.80;;;1.93;;